Time;durP1;ratioP1;P1;durP2;ratioP2;P2;SDS_P1;SDS_P2;PMS_P1;PMS_P2;Temp;Humidity;BMP_temperature;BMP_pressure;BME280_temperature;BME280_humidity;BME280_pressure;Samples;Min_cycle;Max_cycle;Signal;HPM_P1;HPM_P2
2022/06/14 00:01:07;;;;;;;5.40;3.22;;;;;;;8.21;100.00;93626.63;2109129;28;20432;-81
2022/06/14 00:02:09;;;;;;;6.80;3.42;;;;;;;8.27;100.00;93630.41;2097976;28;20029;-80
2022/06/14 00:03:11;;;;;;;9.55;3.78;;;;;;;8.26;100.00;93636.91;2090046;28;20025;-80
2022/06/14 00:04:13;;;;;;;6.93;3.80;;;;;;;8.24;100.00;93631.94;2090141;28;20013;-79
2022/06/14 00:05:14;;;;;;;9.15;3.50;;;;;;;8.16;100.00;93627.78;2090083;28;20115;-79
2022/06/14 00:06:23;;;;;;;10.85;3.47;;;;;;;8.11;100.00;93630.09;2089779;28;20079;-81
2022/06/14 00:07:25;;;;;;;6.35;3.20;;;;;;;8.08;100.00;93629.75;2092103;28;20115;-79
2022/06/14 00:08:28;;;;;;;7.35;4.25;;;;;;;8.07;100.00;93633.53;2098039;28;20050;-79
2022/06/14 00:09:30;;;;;;;11.13;3.63;;;;;;;8.07;100.00;93630.09;2106253;28;20495;-81
2022/06/14 00:10:31;;;;;;;6.65;3.38;;;;;;;8.15;100.00;93630.84;2089910;28;20021;-80
2022/06/14 00:11:37;;;;;;;4.93;3.22;;;;;;;8.11;100.00;93627.44;2091421;28;20441;-82
2022/06/14 00:12:38;;;;;;;5.13;3.53;;;;;;;8.11;100.00;93635.41;2107925;27;20528;-80
2022/06/14 00:13:40;;;;;;;4.80;3.42;;;;;;;8.01;100.00;93637.75;2104951;28;20020;-80
2022/06/14 00:14:41;;;;;;;8.00;3.20;;;;;;;8.03;100.00;93632.81;2095868;28;20513;-80
2022/06/14 00:15:45;;;;;;;5.30;3.28;;;;;;;7.94;100.00;93632.44;2089783;28;20040;-80
2022/06/14 00:16:46;;;;;;;3.67;3.00;;;;;;;8.03;100.00;93627.47;2082010;28;20036;-80
2022/06/14 00:17:47;;;;;;;7.50;3.22;;;;;;;8.02;100.00;93633.19;2073368;28;20026;-80
2022/06/14 00:18:49;;;;;;;6.18;3.35;;;;;;;8.02;100.00;93630.50;2081705;28;20026;-80
2022/06/14 00:19:50;;;;;;;5.97;3.10;;;;;;;7.97;100.00;93629.00;2089506;28;20120;-80
2022/06/14 00:20:52;;;;;;;6.25;2.95;;;;;;;7.94;100.00;93624.44;2089614;28;20021;-79
2022/06/14 00:21:53;;;;;;;5.88;3.45;;;;;;;7.91;100.00;93624.47;2085029;28;20036;-79
2022/06/14 00:22:56;;;;;;;5.60;3.10;;;;;;;7.97;100.00;93630.91;2081341;28;20037;-79
2022/06/14 00:23:59;;;;;;;4.95;3.15;;;;;;;7.96;100.00;93626.75;2098626;28;20025;-79
2022/06/14 00:25:00;;;;;;;4.95;3.00;;;;;;;7.92;100.00;93629.41;2098597;28;20373;-79
2022/06/14 00:26:02;;;;;;;4.90;3.28;;;;;;;7.82;100.00;93624.88;2105470;28;20051;-79
2022/06/14 00:27:03;;;;;;;6.07;3.22;;;;;;;7.88;100.00;93627.91;2089739;28;20029;-81
2022/06/14 00:28:06;;;;;;;6.97;3.35;;;;;;;7.94;100.00;93624.44;2089785;28;20032;-81
2022/06/14 00:29:07;;;;;;;5.65;3.28;;;;;;;7.91;100.00;93629.81;2089924;28;20108;-81
2022/06/14 00:30:08;;;;;;;6.32;3.60;;;;;;;7.81;100.00;93626.00;2081359;28;20033;-80
2022/06/14 00:31:13;;;;;;;5.88;3.47;;;;;;;7.89;100.00;93629.41;2086868;28;20814;-80
2022/06/14 00:32:14;;;;;;;6.38;3.40;;;;;;;7.85;100.00;93626.75;2074508;28;20080;-79
2022/06/14 00:33:16;;;;;;;7.47;3.40;;;;;;;7.87;100.00;93629.06;2086505;28;20021;-79
2022/06/14 00:34:17;;;;;;;5.60;3.53;;;;;;;7.76;100.00;93623.75;2114620;28;20058;-80
2022/06/14 00:35:18;;;;;;;4.28;3.30;;;;;;;7.72;100.00;93621.09;2106255;28;20117;-80
2022/06/14 00:36:28;;;;;;;6.70;3.40;;;;;;;7.70;100.00;93620.72;2090428;28;20021;-78
2022/06/14 00:37:29;;;;;;;;;;;;;;;7.71;100.00;93616.91;2083189;28;20026;-80
2022/06/14 00:38:30;;;;;;;7.97;2.80;;;;;;;7.82;100.00;93624.88;2081813;28;19912;-81
2022/06/14 00:39:31;;;;;;;6.38;3.50;;;;;;;7.81;100.00;93626.00;2081494;28;20036;-81
2022/06/14 00:40:34;;;;;;;7.25;3.28;;;;;;;7.70;100.00;93623.41;2094211;28;20040;-79
2022/06/14 00:41:47;;;;;;;6.13;3.38;;;;;;;7.80;100.00;93621.84;2105902;28;20028;-81
2022/06/14 00:42:48;;;;;;;5.82;3.50;;;;;;;7.76;100.00;93621.09;2082703;28;20037;-79
2022/06/14 00:43:49;;;;;;;4.97;3.30;;;;;;;7.75;100.00;93620.34;2089437;28;20500;-80
2022/06/14 00:45:06;;;;;;;7.22;3.55;;;;;;;7.81;100.00;93626.00;2089557;28;20021;-80
2022/06/14 00:46:14;;;;;;;4.72;2.95;;;;;;;7.73;100.00;93619.22;2089510;28;20040;-80
2022/06/14 00:47:15;;;;;;;7.13;3.50;;;;;;;7.74;100.00;93620.72;2091716;28;20078;-79
2022/06/14 00:48:31;;;;;;;5.97;3.63;;;;;;;7.66;100.00;93617.31;2105828;28;20092;-79
2022/06/14 00:49:39;;;;;;;4.60;3.42;;;;;;;7.56;100.00;93616.22;2095684;28;20032;-80
2022/06/14 00:51:05;;;;;;;4.68;3.05;;;;;;;7.64;100.00;93624.16;2090251;28;20020;-79
2022/06/14 00:52:16;;;;;;;7.18;3.75;;;;;;;7.65;100.00;93620.38;2089613;28;20025;-79
2022/06/14 00:54:14;;;;;;;7.15;3.25;;;;;;;7.72;100.00;93623.00;2083218;28;20029;-79
2022/06/14 00:55:18;;;;;;;3.63;2.80;;;;;;;7.70;100.00;93619.97;2092373;28;20064;-80
2022/06/14 00:56:30;;;;;;;5.40;3.35;;;;;;;7.56;100.00;93616.22;2089791;28;20028;-81
2022/06/14 00:57:56;;;;;;;7.95;2.97;;;;;;;7.56;100.00;93621.53;2091069;28;20424;-80
2022/06/14 00:59:17;;;;;;;4.93;3.00;;;;;;;7.61;100.00;93614.31;2088942;28;20032;-78
2022/06/14 01:00:22;;;;;;;7.07;3.40;;;;;;;7.65;100.00;93623.03;2086401;28;20029;-79
2022/06/14 01:01:30;;;;;;;4.60;3.40;;;;;;;7.52;100.00;93620.78;2090008;28;20072;-79
2022/06/14 01:02:38;;;;;;;5.53;3.38;;;;;;;7.57;100.00;93617.72;2082149;28;20047;-79
2022/06/14 01:03:44;;;;;;;6.25;3.00;;;;;;;7.47;100.00;93623.06;2082969;28;20356;-81
2022/06/14 01:04:46;;;;;;;4.53;2.90;;;;;;;7.46;100.00;93617.00;2098433;28;20095;-80
2022/06/14 01:06:07;;;;;;;6.55;3.03;;;;;;;7.47;100.00;93618.50;2097347;28;20050;-79
2022/06/14 01:07:16;;;;;;;;;;;;;;;7.42;100.00;93615.47;2087093;28;20429;-80
2022/06/14 01:08:17;;;;;;;4.18;2.90;;;;;;;7.63;100.00;93610.09;2096225;28;19916;-80
2022/06/14 01:09:40;;;;;;;3.42;3.08;;;;;;;7.56;100.00;93613.56;2097690;28;20037;-81
2022/06/14 01:10:47;;;;;;;6.28;3.13;;;;;;;7.49;100.00;93612.78;2098305;28;20027;-79
2022/06/14 01:11:54;;;;;;;5.35;3.30;;;;;;;7.36;100.00;93620.41;2093019;28;20040;-80
2022/06/14 01:13:00;;;;;;;4.45;3.22;;;;;;;7.41;100.00;93616.59;2091248;28;20021;-79
2022/06/14 01:14:23;;;;;;;4.18;3.10;;;;;;;7.43;100.00;93617.00;2094032;28;20052;-80
2022/06/14 01:15:31;;;;;;;6.60;3.70;;;;;;;7.43;100.00;93606.38;2092307;28;20062;-81
2022/06/14 01:16:34;;;;;;;4.47;3.58;;;;;;;7.44;100.00;93611.28;2091144;28;20027;-81
2022/06/14 01:17:42;;;;;;;6.68;3.40;;;;;;;7.43;100.00;93615.09;2107754;27;20035;-80
2022/06/14 01:18:44;;;;;;;5.82;3.67;;;;;;;7.44;100.00;93613.19;2106758;28;20073;-79
2022/06/14 01:19:45;;;;;;;6.47;3.55;;;;;;;7.38;100.00;93604.84;2103060;28;20020;-79
2022/06/14 01:20:46;;;;;;;6.18;3.40;;;;;;;7.25;100.00;93604.50;2098793;28;20016;-79
2022/06/14 01:22:08;;;;;;;4.53;3.53;;;;;;;7.23;100.00;93598.78;2101537;28;20016;-81
2022/06/14 01:23:13;;;;;;;5.53;3.38;;;;;;;7.30;100.00;93603.34;2086513;28;20769;-81
2022/06/14 01:24:14;;;;;;;6.85;3.42;;;;;;;7.28;100.00;93601.03;2090480;28;20044;-79
2022/06/14 01:25:15;;;;;;;7.45;3.70;;;;;;;7.40;100.00;93602.56;2095887;28;20017;-79
2022/06/14 01:26:22;;;;;;;5.70;3.83;;;;;;;7.43;100.00;93598.38;2097575;28;20507;-79
2022/06/14 01:27:25;;;;;;;7.25;3.30;;;;;;;7.43;100.00;93603.69;2114843;27;20024;-79
2022/06/14 01:28:28;;;;;;;4.57;3.50;;;;;;;7.39;100.00;93597.63;2122377;27;20027;-79
2022/06/14 01:29:33;;;;;;;5.20;3.08;;;;;;;7.28;100.00;93595.72;2106736;27;20050;-79
2022/06/14 01:30:42;;;;;;;6.00;3.47;;;;;;;7.31;100.00;93602.19;2106244;28;20468;-80
2022/06/14 01:31:45;;;;;;;6.60;3.70;;;;;;;7.30;100.00;93598.78;2105779;28;20024;-80
2022/06/14 01:32:53;;;;;;;7.90;3.47;;;;;;;7.25;100.00;93601.84;2106005;28;20023;-80
2022/06/14 01:33:58;;;;;;;9.35;3.67;;;;;;;7.26;100.00;93597.25;2106491;28;20496;-79
2022/06/14 01:35:07;;;;;;;7.45;3.42;;;;;;;7.21;100.00;93593.09;2114574;28;20024;-79
2022/06/14 01:36:12;;;;;;;3.95;3.47;;;;;;;7.27;100.00;93594.22;2115370;28;20061;-79
2022/06/14 01:37:14;;;;;;;6.00;3.10;;;;;;;7.28;100.00;93597.63;2106566;28;20020;-80
2022/06/14 01:38:15;;;;;;;4.78;3.35;;;;;;;7.23;100.00;93598.03;2105745;28;20089;-80
2022/06/14 01:39:18;;;;;;;5.68;3.47;;;;;;;7.24;100.00;93586.25;2107195;28;20058;-80
2022/06/14 01:40:24;;;;;;;6.97;3.90;;;;;;;7.16;100.00;93593.50;2114199;28;20030;-80
2022/06/14 01:41:40;;;;;;;6.60;4.05;;;;;;;7.14;100.00;93595.00;2105569;28;20440;-79
2022/06/14 01:42:56;;;;;;;7.90;3.45;;;;;;;7.21;100.00;93589.69;2103704;27;20122;-80
2022/06/14 01:44:19;;;;;;;5.93;3.50;;;;;;;7.18;100.00;93585.88;2106481;28;20035;-80
2022/06/14 01:45:23;;;;;;;6.28;4.00;;;;;;;7.20;100.00;93590.81;2103703;28;20034;-80
2022/06/14 01:46:33;;;;;;;8.02;3.70;;;;;;;7.28;100.00;93589.66;2097520;28;20077;-78
2022/06/14 01:47:48;;;;;;;4.72;3.47;;;;;;;7.37;100.00;93591.91;2108351;27;20024;-80
2022/06/14 01:53:05;;;;;;;7.07;3.47;;;;;;;7.06;100.00;93597.66;2096881;28;20028;-78
2022/06/14 01:54:15;;;;;;;6.90;3.47;;;;;;;7.06;100.00;93600.31;2097133;28;20032;-80
2022/06/14 01:55:35;;;;;;;;;;;;;;;7.14;100.00;93590.44;2096111;28;20021;-79
2022/06/14 01:56:49;;;;;;;5.43;3.17;;;;;;;7.16;100.00;93598.81;2086226;28;19923;-81
2022/06/14 01:57:59;;;;;;;9.95;3.40;;;;;;;7.17;100.00;93599.56;2090909;28;20473;-81
2022/06/14 01:59:10;;;;;;;5.90;4.00;;;;;;;7.14;100.00;93595.75;2091526;28;20115;-80
2022/06/14 02:00:16;;;;;;;6.13;3.72;;;;;;;7.13;100.00;93598.81;2090384;28;20060;-78
2022/06/14 02:01:40;;;;;;;9.35;3.80;;;;;;;7.09;100.00;93590.06;2097798;28;20552;-79
2022/06/14 02:02:50;;;;;;;6.85;3.10;;;;;;;7.12;100.00;93586.66;2092125;28;20032;-78
2022/06/14 02:05:35;;;;;;;4.20;3.35;;;;;;;7.14;100.00;93593.09;2105731;28;20024;-79
2022/06/14 02:06:54;;;;;;;6.22;3.53;;;;;;;7.01;100.00;93592.72;2097098;28;20028;-80
2022/06/14 02:08:16;;;;;;;3.65;3.25;;;;;;;6.86;100.00;93593.88;2085764;28;20026;-79
2022/06/14 02:09:23;;;;;;;7.63;3.83;;;;;;;6.92;100.00;93599.56;2086570;28;20029;-81
2022/06/14 02:10:36;;;;;;;7.55;3.72;;;;;;;6.96;100.00;93598.44;2082571;28;20057;-80
2022/06/14 02:11:37;;;;;;;4.82;3.42;;;;;;;6.90;100.00;93597.31;2092114;28;20025;-80
2022/06/14 02:13:48;;;;;;;;;;;;;;;6.92;100.00;93594.25;2133197;27;20227;-84
2022/06/14 02:14:58;;;;;;;7.05;3.72;;;;;;;6.95;100.00;93590.84;2121813;28;19917;-85
2022/06/14 02:16:48;;;;;;;4.38;3.67;;;;;;;6.93;100.00;93588.53;2107378;28;20030;-85
2022/06/14 02:18:00;;;;;;;5.75;3.55;;;;;;;6.87;100.00;93595.38;2077864;28;20036;-84
2022/06/14 02:19:06;;;;;;;5.63;3.50;;;;;;;6.79;100.00;93591.22;2113087;27;20031;-85
2022/06/14 02:20:16;;;;;;;5.53;3.88;;;;;;;6.70;100.00;93588.19;2114050;28;20031;-82
2022/06/14 02:21:26;;;;;;;4.57;3.42;;;;;;;6.78;100.00;93595.78;2114479;28;20024;-89
2022/06/14 02:22:41;;;;;;;5.13;3.70;;;;;;;6.82;100.00;93593.13;2106095;28;20458;-85
2022/06/14 02:23:48;;;;;;;4.95;3.72;;;;;;;6.81;100.00;93584.41;2108876;28;20024;-85
2022/06/14 02:24:53;;;;;;;6.47;3.60;;;;;;;6.81;100.00;93591.59;2105964;28;20024;-85
2022/06/14 02:26:04;;;;;;;5.28;4.22;;;;;;;6.78;100.00;93592.34;2106121;28;20043;-87
2022/06/14 02:27:14;;;;;;;6.07;3.60;;;;;;;6.79;100.00;93589.31;2106259;28;20115;-83
2022/06/14 02:28:28;;;;;;;5.20;3.53;;;;;;;6.74;100.00;93588.94;2107601;28;20484;-86
2022/06/14 02:29:45;;;;;;;7.03;3.67;;;;;;;6.85;100.00;93584.41;2106330;28;20016;-85
2022/06/14 02:31:00;;;;;;;4.32;3.53;;;;;;;6.87;100.00;93582.09;2109244;28;20249;-82
2022/06/14 02:32:08;;;;;;;7.43;3.85;;;;;;;6.88;100.00;93582.88;2106804;28;20377;-84
2022/06/14 02:33:20;;;;;;;7.07;3.67;;;;;;;6.79;100.00;93586.66;2106613;28;20138;-82
2022/06/14 02:35:03;;;;;;;6.53;3.75;;;;;;;6.63;100.00;93577.53;2105924;28;20028;-84
2022/06/14 02:36:40;;;;;;;6.63;3.80;;;;;;;6.60;100.00;93581.72;2118977;28;20035;-86
2022/06/14 02:37:49;;;;;;;6.63;3.78;;;;;;;6.68;100.00;93582.50;2118342;28;20460;-85
2022/06/14 02:38:55;;;;;;;4.82;3.78;;;;;;;6.65;100.00;93577.94;2114186;28;20051;-83
2022/06/14 02:40:08;;;;;;;6.03;3.63;;;;;;;6.62;100.00;93582.09;2105337;28;20067;-83
2022/06/14 02:41:29;;;;;;;7.15;3.90;;;;;;;6.56;100.00;93580.97;2107998;28;20017;-83
2022/06/14 02:42:38;;;;;;;5.50;3.53;;;;;;;6.63;100.00;93580.97;2116023;28;20093;-85
2022/06/14 02:44:02;;;;;;;6.75;3.83;;;;;;;6.60;100.00;93581.72;2105609;28;20073;-87
2022/06/14 02:45:12;;;;;;;5.70;3.80;;;;;;;6.56;100.00;93588.94;2110851;28;20031;-84
2022/06/14 02:46:31;;;;;;;7.57;3.88;;;;;;;6.52;100.00;93582.84;2121334;28;20024;-85
2022/06/14 02:47:43;;;;;;;8.55;3.70;;;;;;;6.60;100.00;93578.31;2112784;28;20032;-85
2022/06/14 02:48:53;;;;;;;10.70;4.07;;;;;;;6.69;100.00;93576.03;2106220;28;20081;-83
2022/06/14 02:50:10;;;;;;;6.80;3.50;;;;;;;6.67;100.00;93572.97;2107068;28;20825;-87
2022/06/14 02:51:23;;;;;;;8.65;3.88;;;;;;;6.58;100.00;93576.00;2120983;28;20423;-82
2022/06/14 02:52:33;;;;;;;9.13;4.50;;;;;;;6.61;100.00;93580.56;2105929;28;20024;-88
2022/06/14 02:54:18;;;;;;;9.55;3.88;;;;;;;6.49;100.00;93592.31;2105663;28;20020;-84
2022/06/14 02:55:28;;;;;;;7.97;4.07;;;;;;;6.52;100.00;93591.56;2093858;28;20031;-85
2022/06/14 02:57:04;;;;;;;4.82;3.65;;;;;;;6.45;100.00;93583.63;2098752;28;20056;-86
2022/06/14 02:58:08;;;;;;;8.15;3.67;;;;;;;6.45;100.00;93582.81;2104466;28;20028;-84
2022/06/14 02:59:29;;;;;;;10.40;3.80;;;;;;;6.40;100.00;93583.97;2097011;28;20028;-87
2022/06/14 03:00:42;;;;;;;5.28;3.97;;;;;;;6.40;100.00;93583.97;2110081;28;20101;-82
2022/06/14 03:01:48;;;;;;;6.63;3.63;;;;;;;6.33;100.00;93586.63;2105969;28;20115;-84
2022/06/14 03:03:04;;;;;;;9.43;4.07;;;;;;;6.35;100.00;93583.59;2097524;28;20408;-87
2022/06/14 03:04:28;;;;;;;3.65;3.28;;;;;;;6.29;100.00;93580.53;2108552;28;20040;-85
2022/06/14 03:05:39;;;;;;;7.97;3.97;;;;;;;6.29;100.00;93588.50;2116542;27;20528;-86
2022/06/14 03:06:47;;;;;;;9.77;4.40;;;;;;;6.32;100.00;93582.44;2114112;28;20046;-84
2022/06/14 03:07:57;;;;;;;9.00;4.32;;;;;;;6.36;100.00;93587.75;2105502;28;20412;-86
2022/06/14 03:09:19;;;;;;;5.97;3.92;;;;;;;6.40;100.00;93581.31;2107222;28;20051;-87
2022/06/14 03:10:20;;;;;;;7.43;3.80;;;;;;;6.41;100.00;93574.88;2107372;28;20123;-86
2022/06/14 03:11:53;;;;;;;8.88;4.10;;;;;;;6.33;100.00;93583.97;2096116;28;20027;-82
2022/06/14 03:13:17;;;;;;;7.05;3.53;;;;;;;6.37;100.00;93576.78;2091014;28;20080;-84
2022/06/14 03:14:18;;;;;;;9.57;4.45;;;;;;;6.27;100.00;93583.56;2102369;28;20171;-87
2022/06/14 03:15:37;;;;;;;8.80;4.30;;;;;;;6.31;100.00;93572.94;2104280;28;20031;-85
2022/06/14 03:17:07;;;;;;;8.13;4.47;;;;;;;6.21;100.00;93579.00;2098441;28;20432;-83
2022/06/14 03:18:30;;;;;;;12.20;4.30;;;;;;;6.25;100.00;93577.88;2079161;28;20038;-82
2022/06/14 03:19:53;;;;;;;7.28;4.05;;;;;;;6.34;100.00;93579.41;2093627;28;20024;-85
2022/06/14 03:21:16;;;;;;;6.13;3.97;;;;;;;6.26;100.00;93574.09;2101980;28;20023;-84
2022/06/14 03:22:26;;;;;;;5.45;3.78;;;;;;;6.29;100.00;93569.94;2104128;28;20032;-84
2022/06/14 03:23:45;;;;;;;6.70;4.22;;;;;;;6.29;100.00;93572.59;2090397;28;20029;-86
2022/06/14 03:25:06;;;;;;;6.30;3.97;;;;;;;6.22;100.00;93573.31;2097650;28;20100;-85
2022/06/14 03:26:10;;;;;;;4.97;3.95;;;;;;;6.22;100.00;93568.00;2093011;28;20032;-82
2022/06/14 03:27:29;;;;;;;6.30;4.22;;;;;;;6.24;100.00;93576.38;2088933;28;20059;-87
2022/06/14 03:28:54;;;;;;;7.30;4.15;;;;;;;6.20;100.00;93577.50;2101314;28;20531;-85
2022/06/14 03:30:12;;;;;;;7.10;4.47;;;;;;;6.16;100.00;93572.16;2096795;28;20484;-83
2022/06/14 03:31:38;;;;;;;6.10;3.95;;;;;;;6.13;100.00;93575.56;2095086;28;20064;-83
2022/06/14 03:32:53;;;;;;;5.35;3.30;;;;;;;6.21;100.00;93566.50;2094272;28;20104;-86
2022/06/14 03:34:04;;;;;;;7.80;3.90;;;;;;;6.19;100.00;93571.44;2086130;28;20025;-87
2022/06/14 03:35:33;;;;;;;8.05;4.10;;;;;;;6.19;100.00;93578.59;2085052;28;20029;-85
2022/06/14 03:36:35;;;;;;;8.13;3.80;;;;;;;6.24;100.00;93570.31;2084269;28;20041;-84
2022/06/14 03:37:37;;;;;;;6.90;4.13;;;;;;;6.23;100.00;93574.06;2093072;28;20496;-83
2022/06/14 03:38:54;;;;;;;7.70;4.55;;;;;;;6.29;100.00;93580.53;2096286;28;20028;-82
2022/06/14 03:40:01;;;;;;;7.53;4.40;;;;;;;6.26;100.00;93578.63;2098716;28;20028;-84
2022/06/14 03:41:04;;;;;;;10.40;5.15;;;;;;;6.19;100.00;93579.41;2091872;28;20052;-86
2022/06/14 03:42:09;;;;;;;5.32;3.75;;;;;;;6.21;100.00;93584.31;2094099;28;20032;-85
2022/06/14 03:43:11;;;;;;;8.25;3.92;;;;;;;6.25;100.00;93579.78;2090743;28;20036;-85
2022/06/14 03:44:14;;;;;;;12.15;4.82;;;;;;;6.22;100.00;93583.94;2082551;28;20036;-84
2022/06/14 03:45:20;;;;;;;8.98;4.95;;;;;;;6.23;100.00;93571.41;2099299;28;20050;-85
2022/06/14 03:46:21;;;;;;;8.63;4.38;;;;;;;6.22;100.00;93581.28;2098531;28;20167;-86
2022/06/14 03:47:27;;;;;;;8.55;4.43;;;;;;;6.14;100.00;93582.38;2082080;28;20544;-84
2022/06/14 03:48:32;;;;;;;7.45;4.57;;;;;;;6.19;100.00;93583.91;2086718;28;20108;-88
2022/06/14 03:49:33;;;;;;;6.63;4.20;;;;;;;6.11;100.00;93583.16;2091568;28;20028;-84
2022/06/14 03:50:50;;;;;;;8.15;4.53;;;;;;;6.11;100.00;93587.72;2098680;28;20020;-86
2022/06/14 03:52:01;;;;;;;6.28;4.07;;;;;;;6.18;100.00;93590.38;2104281;28;20477;-86
2022/06/14 03:53:37;;;;;;;6.57;4.45;;;;;;;6.07;100.00;93584.28;2098156;28;20032;-85
2022/06/14 03:55:10;;;;;;;7.00;4.43;;;;;;;6.24;100.00;93581.69;2099956;28;20032;-85
2022/06/14 03:56:38;;;;;;;7.88;4.47;;;;;;;6.25;100.00;93587.75;2091670;28;20467;-85
2022/06/14 03:58:00;;;;;;;6.22;4.07;;;;;;;6.28;100.00;93584.34;2096275;28;20082;-83
2022/06/14 03:59:31;;;;;;;6.82;4.30;;;;;;;6.36;100.00;93583.19;2087806;28;20492;-84
2022/06/14 04:00:53;;;;;;;10.68;4.43;;;;;;;6.36;100.00;93585.84;2090724;28;20519;-85
2022/06/14 04:02:05;;;;;;;8.77;4.47;;;;;;;6.40;100.00;93583.19;2095960;28;20057;-83
2022/06/14 04:03:47;;;;;;;6.30;4.40;;;;;;;6.33;100.00;93581.31;2101710;28;20020;-87
2022/06/14 04:04:58;;;;;;;4.75;4.00;;;;;;;6.30;100.00;93576.75;2089639;28;20032;-83
2022/06/14 04:06:30;;;;;;;4.97;4.18;;;;;;;6.24;100.00;93572.97;2084729;28;20025;-85
2022/06/14 04:07:44;;;;;;;5.93;3.90;;;;;;;6.32;100.00;93590.38;2098936;28;20051;-84
2022/06/14 04:09:04;;;;;;;5.90;4.07;;;;;;;6.34;100.00;93577.50;2100549;28;20021;-86
2022/06/14 04:10:37;;;;;;;5.78;3.85;;;;;;;6.44;100.00;93581.31;2100829;28;20024;-84
2022/06/14 04:11:51;;;;;;;6.65;3.97;;;;;;;6.45;100.00;93580.97;2094118;28;20540;-84
2022/06/14 04:13:04;;;;;;;10.27;4.38;;;;;;;6.45;100.00;93583.63;2085236;28;20036;-84
2022/06/14 04:14:19;;;;;;;6.25;4.50;;;;;;;6.44;100.00;93582.06;2100237;28;20047;-87
2022/06/14 04:15:32;;;;;;;8.38;5.05;;;;;;;6.48;100.00;93582.09;2098231;28;20077;-85
2022/06/14 04:16:52;;;;;;;8.38;4.35;;;;;;;6.45;100.00;93578.31;2093420;28;20035;-85
2022/06/14 04:18:38;;;;;;;7.57;4.20;;;;;;;6.53;100.00;93576.41;2092585;28;20029;-84
2022/06/14 04:20:05;;;;;;;7.97;4.72;;;;;;;6.61;100.00;93574.50;2096081;28;20024;-85
2022/06/14 04:21:13;;;;;;;7.32;4.53;;;;;;;6.68;100.00;93577.19;2093989;28;20089;-86
2022/06/14 04:22:26;;;;;;;9.20;4.47;;;;;;;6.70;100.00;93580.19;2093438;28;20074;-83
2022/06/14 04:23:48;;;;;;;6.07;4.22;;;;;;;6.64;100.00;93579.06;2093403;28;20064;-82
2022/06/14 04:25:12;;;;;;;8.00;4.43;;;;;;;6.65;100.00;93572.63;2095825;28;20012;-85
2022/06/14 04:26:34;;;;;;;6.80;4.60;;;;;;;6.69;100.00;93568.81;2092977;28;20116;-84
2022/06/14 04:28:08;;;;;;;6.53;4.35;;;;;;;6.72;100.00;93567.31;2092691;28;20028;-85
2022/06/14 04:29:53;;;;;;;7.55;4.20;;;;;;;6.79;100.00;93577.94;2049948;28;20101;-85
2022/06/14 04:31:08;;;;;;;5.93;3.85;;;;;;;6.86;100.00;93569.97;2088751;28;20039;-87
2022/06/14 04:32:22;;;;;;;7.95;4.28;;;;;;;6.91;100.00;93577.56;2092049;28;20025;-87
2022/06/14 04:33:32;;;;;;;7.22;4.32;;;;;;;6.95;100.00;93570.34;2098025;28;20043;-87
2022/06/14 04:34:48;;;;;;;9.80;4.68;;;;;;;6.99;100.00;93575.66;2096222;28;20074;-87
2022/06/14 04:35:55;;;;;;;5.68;4.07;;;;;;;7.00;100.00;93572.59;2096200;28;20044;-87
2022/06/14 04:37:08;;;;;;;6.63;4.05;;;;;;;7.04;100.00;93578.69;2081391;28;20052;-84
2022/06/14 04:38:25;;;;;;;8.00;4.68;;;;;;;7.05;100.00;93571.47;2082301;28;20551;-85
2022/06/14 04:39:34;;;;;;;7.68;4.35;;;;;;;7.06;100.00;93571.06;2092219;28;20028;-83
2022/06/14 04:40:52;;;;;;;7.47;4.78;;;;;;;7.14;100.00;93576.38;2097093;28;20056;-85
2022/06/14 04:42:08;;;;;;;6.55;4.43;;;;;;;7.19;100.00;93568.03;2092239;28;20052;-85
2022/06/14 04:43:19;;;;;;;7.10;4.90;;;;;;;7.21;100.00;93574.50;2107684;28;20028;-83
2022/06/14 04:44:33;;;;;;;6.30;4.80;;;;;;;7.24;100.00;93575.59;2098268;28;20419;-84
2022/06/14 04:45:56;;;;;;;8.07;4.80;;;;;;;7.30;100.00;93576.75;2092120;28;20621;-85
2022/06/14 04:47:05;;;;;;;8.05;4.68;;;;;;;7.29;100.00;93569.91;2095109;28;20590;-84
2022/06/14 04:48:18;;;;;;;8.60;4.50;;;;;;;7.34;100.00;93572.19;2098284;28;20029;-85
2022/06/14 04:49:57;;;;;;;8.15;5.05;;;;;;;7.48;100.00;93571.38;2100188;28;20055;-86
2022/06/14 04:51:31;;;;;;;5.47;4.43;;;;;;;7.51;100.00;93558.09;2080064;28;20034;-85
2022/06/14 04:52:38;;;;;;;9.52;5.05;;;;;;;7.56;100.00;93556.94;2078291;28;20120;-87
2022/06/14 04:53:48;;;;;;;12.55;5.30;;;;;;;7.68;100.00;93556.50;2098913;28;20087;-86
2022/06/14 04:54:49;;;;;;;10.40;5.13;;;;;;;7.80;100.00;93563.28;2097333;28;20028;-88
2022/06/14 04:55:56;;;;;;;11.82;5.68;;;;;;;7.84;100.00;93564.03;2097383;28;20864;-83
2022/06/14 04:57:05;;;;;;;7.18;5.28;;;;;;;7.95;100.00;93564.00;2097914;28;20400;-86
2022/06/14 04:58:13;;;;;;;8.70;5.20;;;;;;;7.88;100.00;93564.78;2094259;28;20902;-88
2022/06/14 04:59:19;;;;;;;5.72;5.07;;;;;;;7.90;100.00;93559.06;2105318;28;20035;-83
2022/06/14 05:00:27;;;;;;;10.63;5.88;;;;;;;7.99;100.00;93564.72;2089533;28;20497;-87
2022/06/14 05:01:46;;;;;;;8.88;5.00;;;;;;;8.03;100.00;93568.91;2091193;28;20024;-84
2022/06/14 05:02:57;;;;;;;11.00;5.78;;;;;;;8.10;100.00;93562.78;2091698;28;20025;-86
2022/06/14 05:04:04;;;;;;;6.22;5.47;;;;;;;8.13;100.00;93571.91;2083832;28;20052;-85
2022/06/14 05:05:11;;;;;;;18.33;6.35;;;;;;;8.15;100.00;93562.38;2090645;28;20029;-88
2022/06/14 05:06:25;;;;;;;8.75;5.63;;;;;;;8.18;100.00;93568.84;2098594;28;20055;-87
2022/06/14 05:07:38;;;;;;;8.48;5.40;;;;;;;8.26;100.00;93565.75;2099140;28;20036;-85
2022/06/14 05:08:59;;;;;;;10.18;5.95;;;;;;;8.32;100.00;93564.19;2098992;28;20073;-86
2022/06/14 05:10:13;;;;;;;8.63;5.40;;;;;;;8.32;100.00;93566.84;2097552;28;20601;-87
2022/06/14 05:11:21;;;;;;;17.13;5.93;;;;;;;8.41;100.00;93561.09;2085682;28;20025;-86
2022/06/14 05:12:48;;;;;;;8.13;5.95;;;;;;;8.50;100.00;93553.44;2100177;28;20028;-87
2022/06/14 05:14:16;;;;;;;17.05;5.97;;;;;;;8.74;100.00;93561.66;2104776;28;20050;-86
2022/06/14 05:15:45;;;;;;;16.70;6.55;;;;;;;8.92;100.00;93556.94;2095415;28;20042;-84
2022/06/14 05:16:46;;;;;;;13.63;5.68;;;;;;;8.92;100.00;93556.94;2095631;28;20023;-84
2022/06/14 05:18:26;;;;;;;9.45;6.65;;;;;;;9.02;100.00;93556.09;2088131;28;20028;-88
2022/06/14 05:19:37;;;;;;;12.25;5.93;;;;;;;9.10;100.00;93551.44;2061153;28;20073;-86
2022/06/14 05:21:03;;;;;;;10.98;6.25;;;;;;;9.14;100.00;93549.50;2099330;28;20123;-83
2022/06/14 05:22:08;;;;;;;10.32;5.85;;;;;;;9.23;100.00;93562.38;2107131;28;20114;-86
2022/06/14 05:23:09;;;;;;;13.23;6.38;;;;;;;9.42;100.00;93556.47;2098047;28;20612;-83
2022/06/14 05:24:10;;;;;;;9.23;5.97;;;;;;;9.42;100.00;93553.78;2089268;28;20036;-85
2022/06/14 05:25:13;;;;;;;10.85;6.03;;;;;;;9.47;100.00;93561.38;2080747;28;20026;-85
2022/06/14 05:26:29;;;;;;;20.15;6.20;;;;;;;9.46;100.00;93559.09;2089384;28;20052;-87
2022/06/14 05:27:39;;;;;;;9.93;5.78;;;;;;;9.56;100.00;93550.97;2098832;28;20107;-87
2022/06/14 05:29:13;;;;;;;9.88;5.65;;;;;;;9.63;100.00;93560.06;2098421;28;20093;-86
2022/06/14 05:30:40;;;;;;;10.88;5.65;;;;;;;9.64;100.00;93551.66;2108996;28;20544;-86
2022/06/14 05:32:03;;;;;;;10.38;5.53;;;;;;;9.76;100.00;93559.16;2093894;28;20035;-86
2022/06/14 05:33:21;;;;;;;11.27;5.72;;;;;;;9.95;100.00;93549.75;2102476;28;20028;-87
2022/06/14 05:35:03;;;;;;;10.13;5.72;;;;;;;10.05;100.00;93553.44;2097114;28;20036;-84
2022/06/14 05:36:12;;;;;;;8.07;5.13;;;;;;;10.21;100.00;93555.56;2097032;28;20031;-87
2022/06/14 05:37:45;;;;;;;8.27;5.40;;;;;;;10.40;100.00;93552.25;2089745;28;20025;-83
2022/06/14 05:39:19;;;;;;;11.57;5.35;;;;;;;10.49;100.00;93554.41;2068178;28;20091;-85
2022/06/14 05:40:25;;;;;;;15.25;5.65;;;;;;;10.55;100.00;93556.25;2089387;28;20029;-87
2022/06/14 05:41:37;;;;;;;11.93;5.43;;;;;;;10.56;100.00;93552.41;2082190;28;20040;-85
2022/06/14 05:43:10;;;;;;;11.35;5.65;;;;;;;10.59;100.00;93556.19;2083434;28;20025;-84
2022/06/14 05:44:16;;;;;;;17.02;6.05;;;;;;;10.63;100.00;93559.59;2059054;28;20398;-86
2022/06/14 05:45:22;;;;;;;8.48;5.03;;;;;;;10.70;100.00;93558.72;2097326;28;20137;-88
2022/06/14 05:46:31;;;;;;;12.93;5.30;;;;;;;10.82;100.00;93563.50;2092797;28;20111;-86
2022/06/14 05:47:37;;;;;;;17.43;6.13;;;;;;;10.73;100.00;93558.66;2091148;28;20036;-86
2022/06/14 05:49:01;;;;;;;7.88;4.72;;;;;;;10.78;100.00;93565.47;2097611;28;20529;-89